x

8720030 - Fernandina Beach, Fl (frdf1) Weather Station

4:54pm - Tue 16th Oct 2018 All times are EDT. -4 hours from GMT.

  • Wind
    7mph, 13mph gusts
  • Sea Temp 82°f
  • Air Temp 87°f
  • Sea Pressure 1019.2mb
  • 8720030 - Fernandina Beach, Fl
  • 8720030 - Fernandina Beach, Fl

More Historic Weather Station data

Upgrade to MSW Pro to gain access to the past 30 days of data for over 8000 Wavebouys and Weather Stations around the globe.

Join

Comparision Forecast

View Surf forecast
   
Tue 10/16 4:54pm 7 13 mph 1019.2mb 82f 87f
4:48pm 7 13 mph 1019.1mb 82f 87f
4:42pm 8 15 mph 1019.2mb 82f 87f
4:36pm 7 11 mph 1019.1mb 82f 86f
4:30pm 5 14 mph 1019.1mb 82f 87f
4:24pm 7 11 mph 1019.1mb 82f 87f
4:18pm 8 13 mph 1019.1mb 82f 87f
4:12pm 3 10 mph 1019.1mb 82f 88f
4:06pm 8 13 mph 1019.1mb 82f 87f
4:00pm 7 14 mph 1019.1mb 82f 87f
3:54pm 6 13 mph 1019.1mb 82f 87f
3:48pm 7 13 mph 1019.1mb 82f 88f
3:42pm 6 13 mph 1019mb 82f 87f
3:36pm 8 11 mph 1019.1mb 82f 87f
3:30pm 8 13 mph 1019mb 81f 87f
3:24pm 9 13 mph 1019.1mb 81f 87f
3:18pm 7 11 mph 1019.1mb 81f 87f
3:12pm 6 11 mph 1019.1mb 81f 87f
3:06pm 9 13 mph 1019.1mb 81f 87f
3:00pm 7 11 mph 1019.2mb 81f 87f
2:54pm 6 11 mph 1019.2mb 81f 88f
2:48pm 5 10 mph 1019.2mb 81f 87f
2:42pm 5 9 mph 1019.2mb 81f 88f
2:36pm 5 11 mph 1019.2mb 81f 87f
2:30pm 6 10 mph 1019.3mb 81f 88f
2:24pm 7 11 mph 1019.4mb 81f 87f
2:18pm 6 9 mph 1019.4mb 81f 87f
2:12pm 6 10 mph 1019.6mb 81f 89f
2:06pm 7 11 mph 1019.6mb 81f 88f
2:00pm 7 11 mph 1019.7mb 81f 87f
1:54pm 6 11 mph 1019.8mb 81f 88f
1:48pm 6 11 mph 1019.8mb 81f 87f
1:42pm 6 9 mph 1019.9mb 82f 88f
1:36pm 5 9 mph 1020mb 82f 89f
1:30pm 6 10 mph 1020.1mb 82f 88f
1:24pm 5 8 mph 1020.2mb 82f 89f
1:18pm 5 9 mph 1020.3mb 82f 89f
1:12pm 6 10 mph 1020.3mb 82f 88f
1:06pm 6 8 mph 1020.5mb 82f 89f
1:00pm 6 9 mph 1020.6mb 82f 87f
12:18pm 1 7 mph 1021.2mb 82f 87f
12:12pm 7 10 mph 1021.3mb 82f 87f
12:06pm 2 5 mph 1021.4mb 82f 87f
12:00pm 3 10 mph 1021.4mb 82f 87f
11:54am 2 6 mph 1021.4mb 82f 86f
11:48am 3 6 mph 1021.4mb 82f 88f
11:42am 3 7 mph 1021.4mb 82f 87f
11:36am 1 8 mph 1021.4mb 82f 87f
11:30am 5 9 mph 1021.4mb 82f 87f
11:24am 2 7 mph 1021.5mb 82f 87f
11:18am 5 9 mph 1021.5mb 82f 87f
11:12am 5 8 mph 1021.6mb 82f 86f
11:06am 7 9 mph 1021.6mb 82f 87f
11:00am 5 8 mph 1021.6mb 82f 86f
10:54am 5 8 mph 1021.6mb 82f 85f
10:48am 3 6 mph 1021.7mb 82f 85f
10:42am 5 8 mph 1021.8mb 82f 86f
10:36am 5 8 mph 1021.8mb 82f 85f
10:30am 6 9 mph 1021.8mb 82f 85f
10:24am 5 9 mph 1021.9mb 82f 85f
10:18am 5 8 mph 1021.9mb 82f 85f
10:12am 5 7 mph 1021.9mb 82f 85f
10:06am 3 8 mph 1021.9mb 82f 84f
10:00am 3 8 mph 1021.9mb 82f 84f
9:54am 3 6 mph 1021.8mb 82f 83f
9:48am 3 8 mph 1021.8mb 82f 83f
9:42am 5 8 mph 1021.8mb 82f 83f
9:36am 7 8 mph 1021.8mb 82f 83f
9:30am 6 8 mph 1021.9mb 82f 82f
9:24am 3 9 mph 1021.8mb 82f 82f
9:18am 3 7 mph 1021.8mb 82f 81f
9:12am 2 7 mph 1021.7mb 82f 81f
9:06am 3 7 mph 1021.6mb 82f 81f
9:00am 3 6 mph 1021.6mb 82f 80f
8:48am 3 5 mph 1021.5mb 82f 80f
8:42am 3 6 mph 1021.5mb 82f 80f
8:36am 5 6 mph 1021.5mb 82f 79f
8:30am 3 5 mph 1021.4mb 82f 79f
8:24am 2 5 mph 1021.4mb 82f 79f